首页
METAR-TAF:

METAR-TAF

机场 :

亨廷顿, 西維吉尼亞州, 美国

纬度: 38-21-54N, 经度: 082-33-18W, 海拔: 252米

当前天气观测

该预报发布于20分钟前的20:51 UTC
风速4节,风向北转东北
温度 29°C
湿度 29%
气压 1019 hPa
能見度: 16.1公里
天空无云

METAR: KHTS 152051Z 02004KT 10SM CLR 29/09 A3009 RMK AO2 SLP181 T02890089 56010

时间: 17:11 (21:11 UTC)

预报

该预报发布于3小时和51分钟前的17:20 UTC
预报有效从15日的 18点(UTC)到 16日的 18点(UTC)
风速8节,风向东北
能見度: 10公里
天空无云
从 16日的 1300点(UTC)
风速4节,风向南转南东
能見度: 10公里
少量云层高于20000英尺

TAF: KHTS 151720Z 1518/1618 05008KT P6SM SKC FM161300 16004KT P6SM FEW200

超过4000个机场的气象观测和天气预报(METAR&TAF报告)。

可查询的气象台以黄色和红色小点在地图上表示。

将鼠标移到小点上方,可查看气象台名称。

然后点击查看天气观测和预报。

如需切换地图:点击带黑十字的绿色按钮放大地图;点击带横线的绿色按钮缩小地图;或者点击绿色箭头查看邻近地区的地图。


METAR-TAF: